createdAt,value
2018-06-22T00:01:27.611Z,101441.42
2018-06-22T00:03:57.882Z,101443.83
2018-06-22T00:06:27.879Z,101447.46
2018-06-22T00:08:58.043Z,101442.64
2018-06-22T00:11:28.282Z,101447.75
2018-06-22T00:13:58.625Z,101449.56
2018-06-22T00:16:28.874Z,101450.53
2018-06-22T00:18:59.256Z,101448.86
2018-06-22T00:21:29.532Z,101438.94
2018-06-22T00:23:59.830Z,101449.12
2018-06-22T00:26:30.067Z,101447.78
2018-06-22T00:29:00.337Z,101448.27
2018-06-22T00:31:30.574Z,101438.94
2018-06-22T00:34:00.831Z,101436.91
2018-06-22T00:36:31.062Z,101436.05
2018-06-22T00:39:01.307Z,101437.98
2018-06-22T00:41:31.583Z,101429.28
2018-06-22T00:44:01.813Z,101428.94
2018-06-22T00:46:32.062Z,101432.80
2018-06-22T00:49:02.325Z,101416.43
2018-06-22T00:51:32.532Z,101423.61
2018-06-22T00:54:10.170Z,101412.20
2018-06-22T00:56:40.294Z,101418.88
2018-06-22T00:59:10.866Z,101422.53
2018-06-22T01:01:41.128Z,101417.31
2018-06-22T01:04:12.059Z,101414.54
2018-06-22T01:06:42.348Z,101415.65
2018-06-22T01:09:13.629Z,101409.80
2018-06-22T01:11:43.635Z,101407.28
2018-06-22T01:14:13.840Z,101413.80
2018-06-22T01:16:44.102Z,101413.58
2018-06-22T01:19:14.365Z,101409.72
2018-06-22T01:21:44.709Z,101408.88
2018-06-22T01:24:14.712Z,101408.39
2018-06-22T01:26:44.926Z,101404.39
2018-06-22T01:29:20.391Z,101407.17
2018-06-22T01:31:50.656Z,101405.02
2018-06-22T01:34:20.955Z,101407.69
2018-06-22T01:36:51.204Z,101403.47
2018-06-22T01:39:21.288Z,101403.32
2018-06-22T01:41:51.462Z,101405.62
2018-06-22T01:44:21.801Z,101404.06
2018-06-22T01:46:52.063Z,101400.55
2018-06-22T01:49:22.347Z,101400.91
2018-06-22T01:51:52.588Z,101403.58
2018-06-22T01:54:22.875Z,101400.84
2018-06-22T01:56:53.142Z,101396.47
2018-06-22T01:59:23.451Z,101397.66
2018-06-22T02:01:53.742Z,101398.17
2018-06-22T02:04:24.002Z,101385.95
2018-06-22T02:06:54.470Z,101395.98
2018-06-22T02:09:24.751Z,101389.95
2018-06-22T02:11:55.048Z,101392.84
2018-06-22T02:14:25.345Z,101397.95
2018-06-22T02:16:55.825Z,101385.70
2018-06-22T02:19:26.067Z,101394.43
2018-06-22T02:21:56.347Z,101387.77
2018-06-22T02:24:26.607Z,101388.73
2018-06-22T02:26:56.895Z,101389.36
2018-06-22T02:29:27.198Z,101383.66
2018-06-22T02:31:57.447Z,101384.37
2018-06-22T02:34:27.749Z,101386.33
2018-06-22T02:36:57.821Z,101383.80
2018-06-22T02:39:28.101Z,101389.62
2018-06-22T02:41:58.317Z,101388.77
2018-06-22T02:44:28.589Z,101379.92
2018-06-22T02:46:58.886Z,101378.73
2018-06-22T02:49:29.174Z,101379.22
2018-06-22T02:51:59.453Z,101383.22
2018-06-22T02:54:29.774Z,101392.05
2018-06-22T02:57:00.089Z,101392.05
2018-06-22T02:59:30.389Z,101387.69
2018-06-22T03:02:00.414Z,101377.52
2018-06-22T03:04:30.657Z,101384.17
2018-06-22T03:07:00.853Z,101380.17
2018-06-22T03:09:31.156Z,101378.99
2018-06-22T03:12:01.524Z,101377.88
2018-06-22T03:14:31.914Z,101368.96
2018-06-22T03:17:02.249Z,101371.48
2018-06-22T03:19:32.897Z,101366.16
2018-06-22T03:22:03.243Z,101365.81
2018-06-22T03:24:33.537Z,101363.86
2018-06-22T03:27:03.835Z,101361.08
2018-06-22T03:29:34.133Z,101356.60
2018-06-22T03:32:04.543Z,101348.61
2018-06-22T03:34:34.762Z,101352.13
2018-06-22T03:37:05.050Z,101349.72
2018-06-22T03:39:35.494Z,101346.69
2018-06-22T03:42:06.001Z,101347.54
2018-06-22T03:44:36.416Z,101344.53
2018-06-22T03:47:06.745Z,101350.09
2018-06-22T03:49:37.154Z,101346.13
2018-06-22T03:52:07.616Z,101346.34
2018-06-22T03:54:37.929Z,101343.94
2018-06-22T03:57:08.262Z,101340.66
2018-06-22T03:59:38.562Z,101338.62
2018-06-22T04:02:08.861Z,101337.39
2018-06-22T04:04:39.217Z,101341.05
2018-06-22T04:07:09.627Z,101339.24
2018-06-22T04:09:40.186Z,101335.58
2018-06-22T04:12:10.473Z,101336.91
2018-06-22T04:14:40.770Z,101329.07
2018-06-22T04:17:10.993Z,101321.19
2018-06-22T04:19:41.242Z,101329.55
2018-06-22T04:22:11.529Z,101329.55
2018-06-22T04:24:41.821Z,101329.92
2018-06-22T04:27:12.086Z,101329.19
2018-06-22T04:29:42.412Z,101328.48
2018-06-22T04:32:12.725Z,101330.17
2018-06-22T04:34:43.117Z,101331.14
2018-06-22T04:37:13.424Z,101322.67
2018-06-22T04:39:43.738Z,101324.96
2018-06-22T04:42:14.127Z,101318.08
2018-06-22T04:44:44.454Z,101321.11
2018-06-22T04:47:14.736Z,101325.44
2018-06-22T04:49:45.024Z,101323.30
2018-06-22T04:52:15.259Z,101328.25
2018-06-22T04:54:45.500Z,101336.61
2018-06-22T04:57:15.790Z,101325.70
2018-06-22T04:59:46.072Z,101310.69
2018-06-22T05:02:16.385Z,101324.84
2018-06-22T05:04:46.633Z,101321.59
2018-06-22T05:07:17.004Z,101328.48
2018-06-22T05:09:47.596Z,101328.48
2018-06-22T05:12:17.949Z,101325.95
2018-06-22T05:14:48.220Z,101329.58
2018-06-22T05:17:18.621Z,101324.48
2018-06-22T05:19:48.918Z,101330.91
2018-06-22T05:22:19.284Z,101329.44
2018-06-22T05:24:49.566Z,101329.95
2018-06-22T05:27:19.864Z,101327.88
2018-06-22T05:29:50.124Z,101335.53
2018-06-22T05:32:20.540Z,101349.19
2018-06-22T05:34:50.851Z,101350.19
2018-06-22T05:37:20.957Z,101352.84
2018-06-22T05:39:51.161Z,101355.14
2018-06-22T05:42:21.582Z,101359.61
2018-06-22T05:44:51.874Z,101359.76
2018-06-22T05:47:22.230Z,101358.66
2018-06-22T05:49:52.547Z,101359.05
2018-06-22T05:52:22.898Z,101352.02
2018-06-22T05:54:53.295Z,101356.24
2018-06-22T05:57:23.570Z,101359.76
2018-06-22T05:59:53.870Z,101361.20
2018-06-22T06:02:24.161Z,101366.41
2018-06-22T06:04:54.434Z,101373.80
2018-06-22T06:07:24.751Z,101378.03
2018-06-22T06:09:55.281Z,101383.13
2018-06-22T06:12:25.627Z,101392.34
2018-06-22T06:14:55.971Z,101385.16
2018-06-22T06:17:26.293Z,101385.31
2018-06-22T06:19:56.608Z,101392.34
2018-06-22T06:22:26.969Z,101395.48
2018-06-22T06:24:57.277Z,101401.66
2018-06-22T06:27:27.575Z,101404.09
2018-06-22T06:29:57.875Z,101412.56
2018-06-22T06:32:28.175Z,101417.88
2018-06-22T06:34:58.478Z,101423.69
2018-06-22T06:37:28.665Z,101417.66
2018-06-22T06:39:58.827Z,101426.60
2018-06-22T06:42:29.202Z,101444.14
2018-06-22T06:44:59.470Z,101444.77
2018-06-22T06:47:30.161Z,101442.44
2018-06-22T06:50:00.445Z,101452.27
2018-06-22T06:52:30.731Z,101444.05
2018-06-22T06:55:01.071Z,101455.89
2018-06-22T06:57:31.316Z,101452.77
2018-06-22T07:00:01.483Z,101464.02
2018-06-22T07:02:31.874Z,101463.65
2018-06-22T07:05:02.375Z,101465.83
2018-06-22T07:07:32.774Z,101458.33
2018-06-22T07:10:03.054Z,101458.80
2018-06-22T07:12:33.379Z,101466.31
2018-06-22T07:15:03.752Z,101464.13
2018-06-22T07:17:34.096Z,101468.74
2018-06-22T07:20:04.554Z,101464.61
2018-06-22T07:22:34.795Z,101471.74
2018-06-22T07:25:05.064Z,101473.59
2018-06-22T07:27:35.083Z,101474.55
2018-06-22T07:30:05.275Z,101481.06
2018-06-22T07:32:35.595Z,101478.06
2018-06-22T07:35:05.896Z,101478.54
2018-06-22T07:37:36.132Z,101480.83
2018-06-22T07:40:06.422Z,101489.67
2018-06-22T07:42:36.786Z,101493.32
2018-06-22T07:45:07.051Z,101497.17
2018-06-22T07:47:37.391Z,101506.73
2018-06-22T07:50:07.716Z,101498.27
2018-06-22T07:52:38.224Z,101500.08
2018-06-22T07:55:08.537Z,101505.03
2018-06-22T07:57:38.850Z,101499.23
2018-06-22T08:00:09.148Z,101496.09
2018-06-22T08:02:39.401Z,101497.42
2018-06-22T08:05:09.689Z,101493.05
2018-06-22T08:07:39.983Z,101488.72
2018-06-22T08:10:10.259Z,101501.05
2018-06-22T08:12:40.645Z,101506.98
2018-06-22T08:15:10.648Z,101506.41
2018-06-22T08:17:40.912Z,101504.33
2018-06-22T08:20:11.410Z,101503.84
2018-06-22T08:22:41.665Z,101509.64
2018-06-22T08:25:11.964Z,101504.33
2018-06-22T08:27:42.257Z,101502.03
2018-06-22T08:30:12.528Z,101500.81
2018-06-22T08:32:42.793Z,101499.71
2018-06-22T08:35:13.094Z,101502.75
2018-06-22T08:37:43.380Z,101502.98
2018-06-22T08:40:13.641Z,101507.70
2018-06-22T08:42:44.062Z,101509.88
2018-06-22T08:45:13.934Z,101515.34
2018-06-22T08:47:44.147Z,101514.73
2018-06-22T08:50:14.432Z,101516.92
2018-06-22T08:52:44.718Z,101515.82
2018-06-22T08:55:15.011Z,101521.15
2018-06-22T08:57:45.359Z,101509.64
2018-06-22T09:00:15.663Z,101501.89
2018-06-22T09:02:45.950Z,101505.03
2018-06-22T09:05:16.262Z,101510.02
2018-06-22T09:07:46.547Z,101507.84
2018-06-22T09:10:16.947Z,101510.50
2018-06-22T09:12:47.236Z,101522.72
2018-06-22T09:15:17.696Z,101511.97
2018-06-22T09:17:48.072Z,101519.68
2018-06-22T09:20:18.160Z,101517.53
2018-06-22T09:22:48.320Z,101518.72
2018-06-22T09:25:18.640Z,101512.06
2018-06-22T09:27:48.934Z,101508.45
2018-06-22T09:30:19.253Z,101504.93
2018-06-22T09:32:49.514Z,101506.37
2018-06-22T09:35:19.778Z,101513.64
2018-06-22T09:37:50.032Z,101516.44
2018-06-22T09:40:20.309Z,101527.57
2018-06-22T09:42:50.661Z,101527.57
2018-06-22T09:45:20.886Z,101531.32
2018-06-22T09:47:51.147Z,101528.28
2018-06-22T09:50:21.438Z,101533.27
2018-06-22T09:52:51.739Z,101528.66
2018-06-22T09:55:22.032Z,101534.94
2018-06-22T09:57:52.044Z,101532.17
2018-06-22T10:00:22.201Z,101533.27
2018-06-22T10:02:52.469Z,101534.22
2018-06-22T10:05:22.723Z,101538.08
2018-06-22T10:07:52.986Z,101530.95
2018-06-22T10:10:23.264Z,101542.20
2018-06-22T10:12:53.514Z,101536.64
2018-06-22T10:15:23.796Z,101545.11
2018-06-22T10:17:54.074Z,101541.25
2018-06-22T10:20:24.422Z,101533.61
2018-06-22T10:22:54.663Z,101539.64
2018-06-22T10:25:24.932Z,101540.64
2018-06-22T10:27:55.542Z,101535.78
2018-06-22T10:30:26.303Z,101536.64
2018-06-22T10:32:56.560Z,101532.75
2018-06-22T10:35:26.820Z,101528.27
2018-06-22T10:37:57.116Z,101530.45
2018-06-22T10:40:27.418Z,101527.31
2018-06-22T10:42:57.713Z,101540.15
2018-06-22T10:45:27.975Z,101537.11
2018-06-22T10:47:58.271Z,101542.44
2018-06-22T10:50:28.634Z,101527.80
2018-06-22T10:52:58.946Z,101533.59
2018-06-22T10:55:29.195Z,101517.28
2018-06-22T10:57:59.510Z,101518.72
2018-06-22T11:00:29.795Z,101532.52
2018-06-22T11:03:00.084Z,101530.84
2018-06-22T11:05:30.113Z,101530.95
2018-06-22T11:08:00.231Z,101526.61
2018-06-22T11:10:30.532Z,101530.09
2018-06-22T11:13:00.839Z,101537.60
2018-06-22T11:15:31.149Z,101540.27
2018-06-22T11:18:01.632Z,101545.25
2018-06-22T11:20:31.916Z,101548.86
2018-06-22T11:23:02.222Z,101560.98
2018-06-22T11:25:32.534Z,101569.55
2018-06-22T11:28:02.786Z,101569.31
2018-06-22T11:30:33.038Z,101573.06
2018-06-22T11:33:03.301Z,101580.57
2018-06-22T11:35:33.574Z,101579.34
2018-06-22T11:38:04.584Z,101576.34
2018-06-22T11:40:34.859Z,101587.33
2018-06-22T11:43:05.167Z,101579.11
2018-06-22T11:45:35.560Z,101577.43
2018-06-22T11:48:06.119Z,101582.14
2018-06-22T11:50:36.455Z,101579.11
2018-06-22T11:53:06.851Z,101571.02
2018-06-22T11:55:37.123Z,101568.11
2018-06-22T11:58:07.375Z,101567.36
2018-06-22T12:00:37.938Z,101566.78
2018-06-22T12:03:08.254Z,101566.64
2018-06-22T12:05:38.535Z,101561.93
2018-06-22T12:08:08.841Z,101569.54
2018-06-22T12:10:39.120Z,101566.88
2018-06-22T12:13:09.418Z,101565.30
2018-06-22T12:15:39.724Z,101562.54
2018-06-22T12:18:10.147Z,101562.87
2018-06-22T12:20:40.222Z,101566.53
2018-06-22T12:23:10.434Z,101563.59
2018-06-22T12:25:40.726Z,101561.92
2018-06-22T12:28:10.967Z,101569.54
2018-06-22T12:30:41.254Z,101568.69
2018-06-22T12:33:11.584Z,101568.20
2018-06-22T12:35:41.843Z,101565.06
2018-06-22T12:38:12.110Z,101571.72
2018-06-22T12:40:42.359Z,101578.99
2018-06-22T12:43:12.651Z,101574.86
2018-06-22T12:45:42.901Z,101562.87
2018-06-22T12:48:13.848Z,101566.64
2018-06-22T12:50:44.105Z,101572.44
2018-06-22T12:53:14.362Z,101575.72
2018-06-22T12:55:44.591Z,101555.03
2018-06-22T12:58:14.850Z,101604.30
2018-06-22T13:00:45.096Z,101609.24
2018-06-22T13:03:15.366Z,101617.36
2018-06-22T13:05:45.616Z,101606.48
2018-06-22T13:08:15.842Z,101605.48
2018-06-22T13:10:45.890Z,101605.97
2018-06-22T13:13:16.024Z,101601.02
2018-06-22T13:15:46.286Z,101603.06
2018-06-22T13:18:16.561Z,101597.88
2018-06-22T13:20:46.844Z,101594.26
2018-06-22T13:23:17.146Z,101598.25
2018-06-22T13:25:47.447Z,101593.88
2018-06-22T13:28:17.748Z,101580.81
2018-06-22T13:30:48.050Z,101586.00
2018-06-22T13:33:19.060Z,101598.73
2018-06-22T13:35:49.381Z,101587.70
2018-06-22T13:38:19.654Z,101585.66
2018-06-22T13:40:49.937Z,101587.95
2018-06-22T13:43:20.235Z,101593.98
2018-06-22T13:45:50.553Z,101587.95
2018-06-22T13:48:20.803Z,101587.70
2018-06-22T13:50:51.131Z,101594.98
2018-06-22T13:56:25.500Z,101600.06
2018-06-22T13:58:55.760Z,101601.50
2018-06-22T14:01:26.055Z,101610.33
2018-06-22T14:04:01.504Z,101612.14
2018-06-22T14:06:37.091Z,101606.47
2018-06-22T14:09:13.927Z,101610.47
2018-06-22T14:11:44.651Z,101604.30
2018-06-22T14:14:14.931Z,101609.72
2018-06-22T14:16:45.205Z,101607.91
2018-06-22T14:19:15.455Z,101605.72
2018-06-22T14:21:45.765Z,101605.38
2018-06-22T14:24:16.047Z,101614.22
2018-06-22T14:26:46.345Z,101618.55
2018-06-22T14:29:16.656Z,101611.56
2018-06-22T14:31:46.669Z,101602.82
2018-06-22T14:34:16.855Z,101612.75
2018-06-22T14:36:47.192Z,101616.75
2018-06-22T14:39:17.468Z,101613.84
2018-06-22T14:41:47.766Z,101613.95
2018-06-22T14:44:18.016Z,101611.80
2018-06-22T14:46:48.359Z,101617.84
2018-06-22T14:49:18.666Z,101619.03
2018-06-22T14:51:53.034Z,101617.70
2018-06-22T14:54:28.651Z,101612.89
2018-06-22T14:57:04.202Z,101613.71
2018-06-22T14:59:39.743Z,101614.70
2018-06-22T15:02:15.306Z,101609.37
2018-06-22T15:04:50.830Z,101602.34
2018-06-22T15:07:26.407Z,101616.75
2018-06-22T15:09:56.761Z,101606.34
2018-06-22T15:12:26.976Z,101600.06
2018-06-22T15:14:57.514Z,101601.02
2018-06-22T15:17:27.820Z,101603.67
2018-06-22T15:19:58.077Z,101604.63
2018-06-22T15:22:28.438Z,101610.47
2018-06-22T15:24:58.697Z,101602.24
2018-06-22T15:27:28.982Z,101595.45
2018-06-22T15:29:59.250Z,101592.55
2018-06-22T15:32:29.521Z,101612.61
2018-06-22T15:35:05.050Z,101612.27
2018-06-22T15:37:40.395Z,101615.89
2018-06-22T15:40:15.859Z,101606.58
2018-06-22T15:42:51.349Z,101616.61
2018-06-22T15:45:26.797Z,101612.88
2018-06-22T15:48:02.522Z,101610.09
2018-06-22T15:50:38.066Z,101606.33
2018-06-22T15:53:13.730Z,101613.61
2018-06-22T15:55:46.148Z,101621.59
2018-06-22T15:58:16.390Z,101627.25
2018-06-22T16:00:46.665Z,101626.06
2018-06-22T16:03:22.297Z,101621.83
2018-06-22T16:05:52.602Z,101626.06
2018-06-22T16:08:22.891Z,101629.33
2018-06-22T16:10:53.166Z,101635.12
2018-06-22T16:13:23.442Z,101630.66
2018-06-22T16:15:58.908Z,101640.32
2018-06-22T16:18:34.525Z,101629.56
2018-06-22T16:21:09.770Z,101636.09
2018-06-22T16:23:45.080Z,101637.31
2018-06-22T16:26:20.567Z,101637.55
2018-06-22T16:28:50.864Z,101628.00
2018-06-22T16:31:21.307Z,101628.10
2018-06-22T16:33:55.187Z,101633.42
2018-06-22T16:36:26.710Z,101628.34
2018-06-22T16:38:57.278Z,101629.56
2018-06-22T16:41:27.565Z,101622.67
2018-06-22T16:43:57.851Z,101628.71
2018-06-22T16:46:28.205Z,101632.84
2018-06-22T16:48:59.507Z,101644.30
2018-06-22T16:51:29.834Z,101634.04
2018-06-22T16:54:00.313Z,101641.64
2018-06-22T16:56:30.606Z,101643.59
2018-06-22T16:59:03.978Z,101658.94
2018-06-22T17:01:34.371Z,101646.38
2018-06-22T17:04:04.611Z,101657.88
2018-06-22T17:06:40.244Z,101659.55
2018-06-22T17:09:15.729Z,101661.97
2018-06-22T17:11:51.255Z,101659.78
2018-06-22T17:14:26.714Z,101657.50
2018-06-22T17:17:02.137Z,101656.78
2018-06-22T17:19:32.395Z,101663.78
2018-06-22T17:22:02.655Z,101662.10
2018-06-22T17:24:32.926Z,101666.81
2018-06-22T17:27:03.187Z,101662.92
2018-06-22T17:29:33.483Z,101663.78
2018-06-22T17:32:03.753Z,101662.67
2018-06-22T17:34:34.083Z,101658.11
2018-06-22T17:37:04.363Z,101663.43
2018-06-22T17:39:34.670Z,101653.74
2018-06-22T17:42:04.913Z,101655.78
2018-06-22T17:44:35.157Z,101669.70
2018-06-22T17:47:05.548Z,101657.24
2018-06-22T17:49:35.815Z,101666.94
2018-06-22T17:52:06.285Z,101663.89
2018-06-22T17:54:36.544Z,101669.09
2018-06-22T17:57:07.004Z,101658.45
2018-06-22T17:59:42.463Z,101662.94
2018-06-22T18:02:18.153Z,101663.89
2018-06-22T18:04:53.681Z,101660.52
2018-06-22T18:07:57.010Z,101667.52
2018-06-22T18:10:32.298Z,101669.31
2018-06-22T18:13:02.535Z,101668.84
2018-06-22T18:15:32.746Z,101667.74
2018-06-22T18:18:03.053Z,101679.01
2018-06-22T18:20:33.349Z,101685.18
2018-06-22T18:23:03.659Z,101687.47
2018-06-22T18:25:33.929Z,101683.85
2018-06-22T18:28:04.825Z,101684.56
2018-06-22T18:30:34.862Z,101689.03
2018-06-22T18:33:05.139Z,101683.94
2018-06-22T18:35:35.480Z,101689.03
2018-06-22T18:38:06.156Z,101700.52
2018-06-22T18:40:36.450Z,101701.85
2018-06-22T18:43:06.930Z,101701.61
2018-06-22T18:45:37.212Z,101705.13
2018-06-22T18:48:07.450Z,101703.06
2018-06-22T18:50:37.767Z,101714.05
2018-06-22T18:53:13.390Z,101708.73
2018-06-22T18:55:48.802Z,101705.73
2018-06-22T18:58:24.269Z,101716.23
2018-06-22T19:00:59.936Z,101715.86
2018-06-22T19:03:35.476Z,101720.84
2018-06-22T19:06:05.774Z,101719.85
2018-06-22T19:08:36.051Z,101723.84
2018-06-22T19:11:06.387Z,101726.16
2018-06-22T19:13:36.650Z,101727.02
2018-06-22T19:16:07.037Z,101732.05
2018-06-22T19:18:37.300Z,101734.81
2018-06-22T19:21:08.295Z,101726.58
2018-06-22T19:23:38.644Z,101741.84
2018-06-22T19:26:09.147Z,101738.55
2018-06-22T19:28:39.278Z,101739.27
2018-06-22T19:31:09.403Z,101731.77
2018-06-22T19:33:39.683Z,101744.25
2018-06-22T19:36:09.950Z,101747.48
2018-06-22T19:38:40.217Z,101756.22
2018-06-22T19:41:10.513Z,101753.05
2018-06-22T19:43:46.271Z,101744.72
2018-06-22T19:46:21.972Z,101752.80
2018-06-22T19:48:57.347Z,101754.64
2018-06-22T19:51:32.830Z,101751.22
2018-06-22T19:54:07.474Z,101763.82
2018-06-22T19:56:38.316Z,101762.23
2018-06-22T19:59:08.712Z,101767.56
2018-06-22T20:01:38.971Z,101765.28
2018-06-22T20:04:09.157Z,101765.37
2018-06-22T20:06:39.329Z,101768.64
2018-06-22T20:09:10.517Z,101773.01
2018-06-22T20:11:40.683Z,101777.00
2018-06-22T20:14:10.990Z,101782.41
2018-06-22T20:16:41.293Z,101783.65
2018-06-22T20:19:11.546Z,101785.45
2018-06-22T20:21:41.929Z,101785.45
2018-06-22T20:24:12.250Z,101793.91
2018-06-22T20:26:42.567Z,101788.21
2018-06-22T20:29:12.808Z,101787.73
2018-06-22T20:31:43.095Z,101789.92
2018-06-22T20:34:18.626Z,101789.06
2018-06-22T20:36:54.101Z,101790.88
2018-06-22T20:39:29.407Z,101782.16
2018-06-22T20:42:04.784Z,101788.69
2018-06-22T20:44:40.288Z,101789.20
2018-06-22T20:47:15.614Z,101798.59
2018-06-22T20:50:49.918Z,101795.94
2018-06-22T20:53:20.167Z,101795.94
2018-06-22T20:55:50.419Z,101803.57
2018-06-22T20:58:20.970Z,101802.72
2018-06-22T21:00:52.307Z,101801.39
2018-06-22T21:03:22.741Z,101797.62
2018-06-22T21:05:59.524Z,101802.33
2018-06-22T21:08:29.669Z,101802.33
2018-06-22T21:10:59.937Z,101815.89
2018-06-22T21:13:30.345Z,101819.63
2018-06-22T21:16:00.526Z,101814.91
2018-06-22T21:18:30.767Z,101817.91
2018-06-22T21:21:13.091Z,101817.56
2018-06-22T21:23:43.327Z,101814.05
2018-06-22T21:26:13.586Z,101819.63
2018-06-22T21:28:49.085Z,101825.07
2018-06-22T21:31:25.452Z,101821.55
2018-06-22T21:34:01.333Z,101821.65
2018-06-22T21:36:36.855Z,101826.97
2018-06-22T21:39:09.788Z,101827.47
2018-06-22T21:41:40.039Z,101821.39
2018-06-22T21:44:10.383Z,101825.29
2018-06-22T21:46:40.658Z,101829.16
2018-06-22T21:49:10.907Z,101833.36
2018-06-22T21:51:41.169Z,101828.89
2018-06-22T21:54:11.430Z,101825.51
2018-06-22T21:56:41.441Z,101830.70
2018-06-22T21:59:11.544Z,101834.69
2018-06-22T22:01:41.836Z,101837.00
2018-06-22T22:04:12.149Z,101839.06
2018-06-22T22:06:42.449Z,101839.66
2018-06-22T22:09:12.703Z,101837.48
2018-06-22T22:11:49.207Z,101844.13
2018-06-22T22:14:19.554Z,101844.98
2018-06-22T22:16:49.950Z,101842.54
2018-06-22T22:19:20.221Z,101837.48
2018-06-22T22:21:50.273Z,101835.89
2018-06-22T22:24:20.419Z,101841.47
2018-06-22T22:26:50.690Z,101828.86
2018-06-22T22:29:20.965Z,101839.66
2018-06-22T22:31:51.204Z,101834.44
2018-06-22T22:34:21.480Z,101837.56
2018-06-22T22:36:51.717Z,101831.77
2018-06-22T22:39:21.977Z,101835.98
2018-06-22T22:41:52.341Z,101837.70
2018-06-22T22:44:22.623Z,101832.38
2018-06-22T22:46:52.881Z,101835.03
2018-06-22T22:49:23.147Z,101838.30
2018-06-22T22:51:53.472Z,101836.97
2018-06-22T22:54:23.785Z,101824.62
2018-06-22T22:56:54.045Z,101827.27
2018-06-22T22:59:24.334Z,101825.09
2018-06-22T23:01:54.596Z,101825.09
2018-06-22T23:04:24.862Z,101825.86
2018-06-22T23:06:55.113Z,101823.67
2018-06-22T23:09:25.583Z,101832.50
2018-06-22T23:11:55.826Z,101827.75
2018-06-22T23:14:26.083Z,101834.40
2018-06-22T23:16:56.982Z,101833.55
2018-06-22T23:19:27.320Z,101833.92
2018-06-22T23:21:57.595Z,101831.73
2018-06-22T23:24:27.919Z,101827.63
2018-06-22T23:26:58.187Z,101832.72
2018-06-22T23:29:28.538Z,101830.06
2018-06-22T23:31:58.782Z,101821.92
2018-06-22T23:34:29.073Z,101826.17
2018-06-22T23:36:59.363Z,101821.45
2018-06-22T23:39:29.588Z,101825.09
2018-06-22T23:41:59.863Z,101819.99
2018-06-22T23:44:30.202Z,101824.36
2018-06-22T23:47:00.455Z,101819.17
2018-06-22T23:49:30.788Z,101820.84
2018-06-22T23:52:01.045Z,101823.50
2018-06-22T23:54:31.298Z,101818.31
2018-06-22T23:57:01.658Z,101817.08
2018-06-22T23:59:32.102Z,101822.78
